createdAt,value
2023-05-03T00:00:36.717Z,12.50
2023-05-03T00:03:06.856Z,12.50
2023-05-03T00:05:37.708Z,12.50
2023-05-03T00:08:05.385Z,12.50
2023-05-03T00:10:32.457Z,12.40
2023-05-03T00:12:59.488Z,12.40
2023-05-03T00:15:26.778Z,12.40
2023-05-03T00:17:54.015Z,12.40
2023-05-03T00:20:22.438Z,12.40
2023-05-03T00:22:49.861Z,12.40
2023-05-03T00:25:17.008Z,12.40
2023-05-03T00:27:44.130Z,12.40
2023-05-03T00:30:11.892Z,12.30
2023-05-03T00:32:39.086Z,12.30
2023-05-03T00:35:06.920Z,12.30
2023-05-03T00:37:34.211Z,12.30
2023-05-03T00:40:01.402Z,12.20
2023-05-03T00:42:29.204Z,12.20
2023-05-03T00:44:56.434Z,12.30
2023-05-03T00:47:23.805Z,12.20
2023-05-03T00:49:51.390Z,12.20
2023-05-03T00:52:18.575Z,12.20
2023-05-03T00:54:45.981Z,12.20
2023-05-03T00:57:13.346Z,12.20
2023-05-03T00:59:40.706Z,12.20
2023-05-03T01:02:08.909Z,12.20
2023-05-03T01:04:37.280Z,12.20
2023-05-03T01:07:31.164Z,12.10
2023-05-03T01:10:38.995Z,12.10
2023-05-03T01:13:56.293Z,12.10
2023-05-03T01:16:40.861Z,12.20
2023-05-03T01:19:44.394Z,12.10
2023-05-03T01:22:38.510Z,12.10
2023-05-03T01:25:11.708Z,12.10
2023-05-03T01:27:40.560Z,12.10
2023-05-03T01:30:12.850Z,12.10
2023-05-03T01:33:16.941Z,12.00
2023-05-03T01:36:12.921Z,12.00
2023-05-03T01:38:40.392Z,12.00
2023-05-03T01:41:13.607Z,12.00
2023-05-03T01:43:42.029Z,12.00
2023-05-03T01:46:09.449Z,12.00
2023-05-03T01:48:36.591Z,12.00
2023-05-03T01:51:03.735Z,12.00
2023-05-03T01:53:30.833Z,12.00
2023-05-03T01:55:57.890Z,12.00
2023-05-03T01:58:24.922Z,12.00
2023-05-03T02:00:52.029Z,12.00
2023-05-03T02:03:19.251Z,12.00
2023-05-03T02:05:46.402Z,12.00
2023-05-03T02:08:13.462Z,12.00
2023-05-03T02:10:43.522Z,12.00
2023-05-03T02:13:10.614Z,12.00
2023-05-03T02:15:37.675Z,12.00
2023-05-03T02:18:05.602Z,12.00
2023-05-03T02:20:36.584Z,12.00
2023-05-03T02:23:04.640Z,12.00
2023-05-03T02:25:32.117Z,12.00
2023-05-03T02:27:59.315Z,12.00
2023-05-03T02:30:26.457Z,12.00
2023-05-03T02:32:53.651Z,12.00
2023-05-03T02:35:20.798Z,12.00
2023-05-03T02:37:48.209Z,11.90
2023-05-03T02:40:15.631Z,11.90
2023-05-03T02:42:42.696Z,11.90
2023-05-03T02:45:10.697Z,11.90
2023-05-03T02:47:38.136Z,11.90
2023-05-03T02:50:06.778Z,11.90
2023-05-03T02:52:33.895Z,11.90
2023-05-03T02:55:01.211Z,11.90
2023-05-03T02:57:28.312Z,11.90
2023-05-03T02:59:55.640Z,11.90
2023-05-03T03:02:22.804Z,11.90
2023-05-03T03:04:49.910Z,11.80
2023-05-03T03:07:16.997Z,11.90
2023-05-03T03:09:44.064Z,11.80
2023-05-03T03:12:11.180Z,11.80
2023-05-03T03:14:38.290Z,11.80
2023-05-03T03:17:09.058Z,11.80
2023-05-03T03:19:36.356Z,11.80
2023-05-03T03:22:03.482Z,11.80
2023-05-03T03:24:30.514Z,11.80
2023-05-03T03:26:58.209Z,11.80
2023-05-03T03:29:25.461Z,11.70
2023-05-03T03:31:52.762Z,11.70
2023-05-03T03:34:20.032Z,11.70
2023-05-03T03:36:47.155Z,11.70
2023-05-03T03:39:14.273Z,11.70
2023-05-03T03:41:41.558Z,11.70
2023-05-03T03:44:08.999Z,11.70
2023-05-03T03:46:36.203Z,11.70
2023-05-03T03:49:03.475Z,11.60
2023-05-03T03:51:31.241Z,11.70
2023-05-03T03:53:58.414Z,11.70
2023-05-03T03:56:25.551Z,11.60
2023-05-03T03:58:52.718Z,11.70
2023-05-03T04:01:19.797Z,11.70
2023-05-03T04:03:47.738Z,11.70
2023-05-03T04:06:15.044Z,11.70
2023-05-03T04:08:42.123Z,11.70
2023-05-03T04:11:12.868Z,11.70
2023-05-03T04:13:40.050Z,11.70
2023-05-03T04:16:07.958Z,11.70
2023-05-03T04:18:35.422Z,11.70
2023-05-03T04:21:02.652Z,11.80
2023-05-03T04:23:31.969Z,11.80
2023-05-03T04:25:59.112Z,11.80
2023-05-03T04:28:27.054Z,11.90
2023-05-03T04:30:54.415Z,11.90
2023-05-03T04:33:22.143Z,11.90
2023-05-03T04:35:52.988Z,11.90
2023-05-03T04:38:20.592Z,12.00
2023-05-03T04:40:47.682Z,12.00
2023-05-03T04:43:14.863Z,12.00
2023-05-03T04:45:42.248Z,12.00
2023-05-03T04:48:09.981Z,12.10
2023-05-03T04:50:37.173Z,12.10
2023-05-03T04:53:04.499Z,12.10
2023-05-03T04:55:31.560Z,12.10
2023-05-03T04:57:58.681Z,12.10
2023-05-03T05:00:25.834Z,12.10
2023-05-03T05:02:52.938Z,12.20
2023-05-03T05:05:20.628Z,12.20
2023-05-03T05:07:47.790Z,12.20
2023-05-03T05:10:15.047Z,12.30
2023-05-03T05:12:42.948Z,12.30
2023-05-03T05:15:10.985Z,12.30
2023-05-03T05:17:38.266Z,12.40
2023-05-03T05:20:07.959Z,12.50
2023-05-03T05:22:35.215Z,12.50
2023-05-03T05:25:02.348Z,12.60
2023-05-03T05:27:29.455Z,12.60
2023-05-03T05:29:56.675Z,12.60
2023-05-03T05:32:23.953Z,12.70
2023-05-03T05:34:55.540Z,12.70
2023-05-03T05:37:23.716Z,12.70
2023-05-03T05:39:51.011Z,12.80
2023-05-03T05:42:18.064Z,12.80
2023-05-03T05:44:45.183Z,12.80
2023-05-03T05:47:12.376Z,12.80
2023-05-03T05:49:40.185Z,12.80
2023-05-03T05:52:07.796Z,12.80
2023-05-03T05:54:34.924Z,12.80
2023-05-03T05:57:02.643Z,12.80
2023-05-03T05:59:31.440Z,12.80
2023-05-03T06:02:00.282Z,12.90
2023-05-03T06:04:27.513Z,12.90
2023-05-03T06:06:54.745Z,12.90
2023-05-03T06:09:24.564Z,12.90
2023-05-03T06:11:52.107Z,13.00
2023-05-03T06:14:20.687Z,13.00
2023-05-03T06:16:47.961Z,13.00
2023-05-03T06:19:15.043Z,13.10
2023-05-03T06:21:42.133Z,13.10
2023-05-03T06:24:09.262Z,13.20
2023-05-03T06:26:36.489Z,13.20
2023-05-03T06:29:04.138Z,13.20
2023-05-03T06:31:31.486Z,13.20
2023-05-03T06:33:58.739Z,13.30
2023-05-03T06:36:25.796Z,13.20
2023-05-03T06:38:52.905Z,13.30
2023-05-03T06:41:19.984Z,13.30
2023-05-03T06:43:47.345Z,13.30
2023-05-03T06:46:14.439Z,13.30
2023-05-03T06:48:41.573Z,13.30
2023-05-03T06:51:08.755Z,13.30
2023-05-03T06:53:36.155Z,13.30
2023-05-03T06:56:03.822Z,13.30
2023-05-03T06:58:31.167Z,13.30
2023-05-03T07:00:58.379Z,13.40
2023-05-03T07:03:25.523Z,13.40
2023-05-03T07:05:52.706Z,13.50
2023-05-03T07:08:20.087Z,13.50
2023-05-03T07:10:47.252Z,13.50
2023-05-03T07:13:14.360Z,13.60
2023-05-03T07:15:41.556Z,13.60
2023-05-03T07:18:09.060Z,13.70
2023-05-03T07:20:36.443Z,13.80
2023-05-03T07:23:03.628Z,13.90
2023-05-03T07:25:31.694Z,13.90
2023-05-03T07:27:59.282Z,14.00
2023-05-03T07:30:27.015Z,14.10
2023-05-03T07:32:54.396Z,14.20
2023-05-03T07:35:23.200Z,14.30
2023-05-03T07:37:50.389Z,14.40
2023-05-03T07:40:17.742Z,14.50
2023-05-03T07:42:45.027Z,14.60
2023-05-03T07:45:12.399Z,14.60
2023-05-03T07:47:40.225Z,14.60
2023-05-03T07:50:08.311Z,14.60
2023-05-03T07:52:40.054Z,14.60
2023-05-03T07:55:08.066Z,14.60
2023-05-03T07:57:36.316Z,14.60
2023-05-03T08:00:06.181Z,14.60
2023-05-03T08:02:33.495Z,14.60
2023-05-03T08:05:00.838Z,14.60
2023-05-03T08:07:28.819Z,14.70
2023-05-03T08:09:58.548Z,14.70
2023-05-03T08:12:28.604Z,14.70
2023-05-03T08:14:56.510Z,14.70
2023-05-03T08:17:24.103Z,14.70
2023-05-03T08:19:51.964Z,14.70
2023-05-03T08:22:19.025Z,14.70
2023-05-03T08:24:46.458Z,14.80
2023-05-03T08:27:13.505Z,14.80
2023-05-03T08:29:40.853Z,14.90
2023-05-03T08:32:07.959Z,15.00
2023-05-03T08:34:35.039Z,15.00
2023-05-03T08:37:04.396Z,15.10
2023-05-03T08:39:32.564Z,15.20
2023-05-03T08:42:00.402Z,15.20
2023-05-03T08:44:29.748Z,15.30
2023-05-03T08:46:56.898Z,15.50
2023-05-03T08:49:25.525Z,15.60
2023-05-03T08:51:53.299Z,15.80
2023-05-03T08:54:22.112Z,15.90
2023-05-03T08:56:49.626Z,16.10
2023-05-03T08:59:17.553Z,16.30
2023-05-03T09:01:45.846Z,16.50
2023-05-03T09:04:13.135Z,16.70
2023-05-03T09:06:40.657Z,17.00
2023-05-03T09:09:08.804Z,17.10
2023-05-03T09:11:38.809Z,17.00
2023-05-03T09:14:19.727Z,16.90
2023-05-03T09:16:47.503Z,16.80
2023-05-03T09:19:16.505Z,16.80
2023-05-03T09:21:47.199Z,16.80
2023-05-03T09:24:22.176Z,16.70
2023-05-03T09:26:53.768Z,16.80
2023-05-03T09:29:34.218Z,17.00
2023-05-03T09:32:05.698Z,17.20
2023-05-03T09:34:34.844Z,17.40
2023-05-03T09:37:02.312Z,17.50
2023-05-03T09:39:29.607Z,17.60
2023-05-03T09:41:56.912Z,17.70
2023-05-03T09:44:53.964Z,17.80
2023-05-03T09:47:24.815Z,17.80
2023-05-03T09:49:52.009Z,17.70
2023-05-03T09:52:22.353Z,17.70
2023-05-03T09:54:52.757Z,17.80
2023-05-03T09:57:20.325Z,17.90
2023-05-03T09:59:48.738Z,18.10
2023-05-03T10:02:16.748Z,18.20
2023-05-03T10:04:53.843Z,18.50
2023-05-03T10:07:23.288Z,18.50
2023-05-03T10:09:50.689Z,18.60
2023-05-03T10:12:19.218Z,18.70
2023-05-03T10:14:48.647Z,18.80
2023-05-03T10:17:46.444Z,18.80
2023-05-03T10:20:45.746Z,18.90
2023-05-03T10:23:14.207Z,19.10
2023-05-03T10:26:07.415Z,19.30
2023-05-03T10:28:34.731Z,19.40
2023-05-03T10:31:03.225Z,19.40
2023-05-03T10:33:31.466Z,19.50
2023-05-03T10:36:01.431Z,19.70
2023-05-03T10:38:29.676Z,19.90
2023-05-03T10:40:57.438Z,19.90
2023-05-03T10:43:30.673Z,20.00
2023-05-03T10:46:29.354Z,20.00
2023-05-03T10:49:19.792Z,20.10
2023-05-03T10:51:47.175Z,19.90
2023-05-03T10:54:14.451Z,19.80
2023-05-03T10:56:50.043Z,19.90
2023-05-03T10:59:17.432Z,20.00
2023-05-03T11:01:51.391Z,20.20
2023-05-03T11:04:41.590Z,20.20
2023-05-03T11:07:10.206Z,20.40
2023-05-03T11:09:37.613Z,20.50
2023-05-03T11:12:07.032Z,20.50
2023-05-03T11:14:34.518Z,20.70
2023-05-03T11:17:02.000Z,20.80
2023-05-03T11:19:29.763Z,20.80
2023-05-03T11:21:58.111Z,20.60
2023-05-03T11:24:25.379Z,20.30
2023-05-03T11:26:52.518Z,20.00
2023-05-03T11:29:21.069Z,19.70
2023-05-03T11:31:48.427Z,19.50
2023-05-03T11:34:16.374Z,19.30
2023-05-03T11:36:43.724Z,19.20
2023-05-03T11:39:15.994Z,19.10
2023-05-03T11:41:43.590Z,19.00
2023-05-03T11:44:17.072Z,19.00
2023-05-03T11:46:46.409Z,18.90
2023-05-03T11:49:18.922Z,18.80
2023-05-03T11:51:49.104Z,18.70
2023-05-03T11:54:25.262Z,18.60
2023-05-03T11:57:00.181Z,18.50
2023-05-03T11:59:40.796Z,18.40
2023-05-03T12:02:11.834Z,18.40
2023-05-03T12:04:41.509Z,18.30
2023-05-03T12:07:12.622Z,18.30
2023-05-03T12:09:42.033Z,18.30
2023-05-03T12:12:19.554Z,18.30
2023-05-03T12:15:03.507Z,18.40
2023-05-03T12:17:43.789Z,18.40
2023-05-03T12:23:04.471Z,18.50
2023-05-03T12:25:34.349Z,18.40
2023-05-03T12:30:35.027Z,18.30
2023-05-03T12:33:04.880Z,18.20
2023-05-03T12:35:34.104Z,18.20
2023-05-03T12:38:03.435Z,18.20
2023-05-03T12:40:34.063Z,18.20
2023-05-03T12:43:01.814Z,18.30
2023-05-03T12:45:33.826Z,18.40
2023-05-03T12:48:03.076Z,18.40
2023-05-03T12:50:31.979Z,18.40
2023-05-03T12:53:02.710Z,18.40
2023-05-03T12:55:35.751Z,18.50
2023-05-03T12:58:36.983Z,18.40
2023-05-03T13:05:52.780Z,18.20
2023-05-03T13:08:21.629Z,18.20
2023-05-03T13:10:49.445Z,18.10
2023-05-03T13:13:17.240Z,18.10
2023-05-03T13:15:44.392Z,18.10
2023-05-03T13:18:11.566Z,18.20
2023-05-03T13:20:39.074Z,18.20
2023-05-03T13:23:06.219Z,18.20
2023-05-03T13:25:33.387Z,18.30
2023-05-03T13:28:02.011Z,18.30
2023-05-03T13:30:29.315Z,18.30
2023-05-03T13:32:56.482Z,18.20
2023-05-03T13:35:23.720Z,18.20
2023-05-03T13:37:52.194Z,18.10
2023-05-03T13:40:19.301Z,18.00
2023-05-03T13:42:49.022Z,17.90
2023-05-03T13:45:18.329Z,17.80
2023-05-03T13:50:16.223Z,17.70
2023-05-03T13:52:44.775Z,17.60
2023-05-03T13:57:39.468Z,17.50
2023-05-03T14:00:08.818Z,17.50
2023-05-03T14:02:36.388Z,17.40
2023-05-03T14:05:03.832Z,17.40
2023-05-03T14:07:32.749Z,17.40
2023-05-03T14:09:59.912Z,17.40
2023-05-03T14:12:27.313Z,17.40
2023-05-03T14:14:54.739Z,17.40
2023-05-03T14:17:21.884Z,17.40
2023-05-03T14:19:49.489Z,17.40
2023-05-03T14:22:16.547Z,17.40
2023-05-03T14:24:44.334Z,17.40
2023-05-03T14:27:12.925Z,17.40
2023-05-03T14:29:40.324Z,17.40
2023-05-03T14:32:07.499Z,17.40
2023-05-03T14:34:34.633Z,17.50
2023-05-03T14:37:01.901Z,17.50
2023-05-03T14:39:29.303Z,17.60
2023-05-03T14:41:56.713Z,17.60
2023-05-03T14:44:23.881Z,17.70
2023-05-03T14:46:53.180Z,17.70
2023-05-03T14:49:20.480Z,17.80
2023-05-03T14:51:47.583Z,17.90
2023-05-03T14:54:14.646Z,18.00
2023-05-03T14:56:41.746Z,18.10
2023-05-03T14:59:09.239Z,18.10
2023-05-03T15:01:39.306Z,18.10
2023-05-03T15:04:10.630Z,18.20
2023-05-03T15:06:39.587Z,18.20
2023-05-03T15:09:08.543Z,18.20
2023-05-03T15:11:39.921Z,18.10
2023-05-03T15:14:07.285Z,18.10
2023-05-03T15:16:37.110Z,18.10
2023-05-03T15:19:04.552Z,18.10
2023-05-03T15:21:31.739Z,18.10
2023-05-03T15:23:58.810Z,18.10
2023-05-03T15:26:25.917Z,18.00
2023-05-03T15:28:53.077Z,18.00
2023-05-03T15:31:20.406Z,17.90
2023-05-03T15:33:47.492Z,17.90
2023-05-03T15:36:16.641Z,17.80
2023-05-03T15:38:44.168Z,17.80
2023-05-03T15:41:11.544Z,17.70
2023-05-03T15:43:38.726Z,17.60
2023-05-03T15:46:06.487Z,17.60
2023-05-03T15:48:33.709Z,17.60
2023-05-03T15:51:00.813Z,17.60
2023-05-03T15:53:28.182Z,17.60
2023-05-03T15:55:58.882Z,17.60
2023-05-03T15:58:30.534Z,17.60
2023-05-03T16:00:59.350Z,17.60
2023-05-03T16:03:27.200Z,17.60
2023-05-03T16:05:56.440Z,17.60
2023-05-03T16:08:23.648Z,17.60
2023-05-03T16:10:51.434Z,17.50
2023-05-03T16:13:18.699Z,17.40
2023-05-03T16:15:46.293Z,17.40
2023-05-03T16:18:13.604Z,17.30
2023-05-03T16:20:41.352Z,17.30
2023-05-03T16:23:09.142Z,17.20
2023-05-03T16:25:36.263Z,17.20
2023-05-03T16:28:03.414Z,17.10
2023-05-03T16:30:30.712Z,17.10
2023-05-03T16:32:57.794Z,17.10
2023-05-03T16:35:24.998Z,17.10
2023-05-03T16:37:53.050Z,17.10
2023-05-03T16:40:20.145Z,17.10
2023-05-03T16:42:50.785Z,17.00
2023-05-03T16:45:19.731Z,17.00
2023-05-03T16:47:47.710Z,16.90
2023-05-03T16:50:17.332Z,16.80
2023-05-03T16:52:44.912Z,16.80
2023-05-03T16:55:13.314Z,16.70
2023-05-03T16:57:40.659Z,16.70
2023-05-03T17:00:09.764Z,16.60
2023-05-03T17:02:38.965Z,16.60
2023-05-03T17:05:12.727Z,16.50
2023-05-03T17:07:41.811Z,16.40
2023-05-03T17:10:09.721Z,16.30
2023-05-03T17:12:37.162Z,16.30
2023-05-03T17:15:05.112Z,16.20
2023-05-03T17:17:32.805Z,16.10
2023-05-03T17:19:59.997Z,16.10
2023-05-03T17:22:28.039Z,16.00
2023-05-03T17:24:57.997Z,16.00
2023-05-03T17:27:26.504Z,15.90
2023-05-03T17:29:57.508Z,15.90
2023-05-03T17:32:24.730Z,15.80
2023-05-03T17:34:51.827Z,15.70
2023-05-03T17:37:19.005Z,15.70
2023-05-03T17:39:46.356Z,15.70
2023-05-03T17:42:13.443Z,15.60
2023-05-03T17:44:41.033Z,15.60
2023-05-03T17:47:08.119Z,15.50
2023-05-03T17:49:35.522Z,15.40
2023-05-03T17:52:04.247Z,15.40
2023-05-03T17:54:31.385Z,15.30
2023-05-03T17:56:58.876Z,15.30
2023-05-03T17:59:26.349Z,15.20
2023-05-03T18:01:53.742Z,15.10
2023-05-03T18:04:21.163Z,15.10
2023-05-03T18:06:48.763Z,15.00
2023-05-03T18:09:16.856Z,14.90
2023-05-03T18:11:45.150Z,14.90
2023-05-03T18:14:12.630Z,14.80
2023-05-03T18:16:40.446Z,14.70
2023-05-03T18:19:08.146Z,14.60
2023-05-03T18:21:35.598Z,14.50
2023-05-03T18:24:03.853Z,14.50
2023-05-03T18:26:33.834Z,14.40
2023-05-03T18:29:01.263Z,14.30
2023-05-03T18:31:29.115Z,14.30
2023-05-03T18:34:00.532Z,14.20
2023-05-03T18:36:28.856Z,14.20
2023-05-03T18:38:57.410Z,14.10
2023-05-03T18:41:25.326Z,14.00
2023-05-03T18:43:54.696Z,14.00
2023-05-03T18:46:22.608Z,13.90
2023-05-03T18:48:51.068Z,13.90
2023-05-03T18:51:18.756Z,13.80
2023-05-03T18:53:46.738Z,13.70
2023-05-03T18:56:14.929Z,13.70
2023-05-03T18:58:42.669Z,13.60
2023-05-03T19:01:12.306Z,13.60
2023-05-03T19:03:40.315Z,13.50
2023-05-03T19:06:08.752Z,13.40
2023-05-03T19:08:37.040Z,13.40
2023-05-03T19:11:13.266Z,13.30
2023-05-03T19:13:46.013Z,13.30
2023-05-03T19:16:19.296Z,13.20
2023-05-03T19:18:48.165Z,13.20
2023-05-03T19:21:20.188Z,13.10
2023-05-03T19:23:48.491Z,13.00
2023-05-03T19:26:16.512Z,13.00
2023-05-03T19:28:44.291Z,13.00
2023-05-03T19:31:11.818Z,12.90
2023-05-03T19:33:40.327Z,12.80
2023-05-03T19:36:12.466Z,12.80
2023-05-03T19:38:40.710Z,12.80
2023-05-03T19:41:12.249Z,12.70
2023-05-03T19:43:41.293Z,12.70
2023-05-03T19:46:09.202Z,12.70
2023-05-03T19:48:37.130Z,12.60
2023-05-03T19:51:08.071Z,12.60
2023-05-03T19:53:37.866Z,12.60
2023-05-03T19:56:07.126Z,12.50
2023-05-03T19:58:34.612Z,12.50
2023-05-03T20:01:04.049Z,12.40
2023-05-03T20:03:31.633Z,12.40
2023-05-03T20:05:59.447Z,12.30
2023-05-03T20:08:27.582Z,12.30
2023-05-03T20:10:55.716Z,12.30
2023-05-03T20:13:23.030Z,12.20
2023-05-03T20:15:50.683Z,12.10
2023-05-03T20:18:18.361Z,12.10
2023-05-03T20:20:45.858Z,12.10
2023-05-03T20:23:14.954Z,12.00
2023-05-03T20:25:42.241Z,12.00
2023-05-03T20:28:09.816Z,12.00
2023-05-03T20:30:37.447Z,12.00
2023-05-03T20:33:04.797Z,11.90
2023-05-03T20:35:32.169Z,11.90
2023-05-03T20:37:59.336Z,11.90
2023-05-03T20:40:26.538Z,11.80
2023-05-03T20:42:53.713Z,11.80
2023-05-03T20:45:20.940Z,11.80
2023-05-03T20:47:48.135Z,11.80
2023-05-03T20:50:15.342Z,11.70
2023-05-03T20:52:42.449Z,11.70
2023-05-03T20:55:09.913Z,11.70
2023-05-03T20:57:43.645Z,11.60
2023-05-03T21:00:12.427Z,11.60
2023-05-03T21:02:39.709Z,11.60
2023-05-03T21:05:07.422Z,11.50
2023-05-03T21:07:34.541Z,11.50
2023-05-03T21:10:01.742Z,11.50
2023-05-03T21:12:29.483Z,11.50
2023-05-03T21:14:56.593Z,11.50
2023-05-03T21:17:23.742Z,11.40
2023-05-03T21:19:51.216Z,11.40
2023-05-03T21:22:18.295Z,11.40
2023-05-03T21:24:45.658Z,11.40
2023-05-03T21:27:12.915Z,11.30
2023-05-03T21:29:40.002Z,11.30
2023-05-03T21:32:07.555Z,11.30
2023-05-03T21:34:34.784Z,11.20
2023-05-03T21:37:02.037Z,11.20
2023-05-03T21:39:29.551Z,11.20
2023-05-03T21:41:56.696Z,11.10
2023-05-03T21:44:23.843Z,11.10
2023-05-03T21:46:51.364Z,11.10
2023-05-03T21:49:18.573Z,11.00
2023-05-03T21:51:45.679Z,11.00
2023-05-03T21:54:12.965Z,11.00
2023-05-03T21:56:39.989Z,11.00
2023-05-03T21:59:07.188Z,11.00
2023-05-03T22:01:34.282Z,10.90
2023-05-03T22:04:01.767Z,10.90
2023-05-03T22:06:28.901Z,10.90
2023-05-03T22:08:56.022Z,10.90
2023-05-03T22:11:23.505Z,10.80
2023-05-03T22:14:03.667Z,10.80
2023-05-03T22:16:34.426Z,10.80
2023-05-03T22:19:01.653Z,10.80
2023-05-03T22:21:28.811Z,10.80
2023-05-03T22:23:55.938Z,10.70
2023-05-03T22:26:24.307Z,10.70
2023-05-03T22:28:52.043Z,10.70
2023-05-03T22:31:19.141Z,10.70
2023-05-03T22:33:47.270Z,10.60
2023-05-03T22:36:14.731Z,10.60
2023-05-03T22:38:42.997Z,10.60
2023-05-03T22:41:10.585Z,10.60
2023-05-03T22:43:37.761Z,10.60
2023-05-03T22:46:06.312Z,10.50
2023-05-03T22:48:34.139Z,10.50
2023-05-03T22:51:01.410Z,10.50
2023-05-03T22:53:28.659Z,10.50
2023-05-03T22:56:06.319Z,10.50
2023-05-03T22:58:34.849Z,10.50
2023-05-03T23:01:01.954Z,10.50
2023-05-03T23:03:29.211Z,10.40
2023-05-03T23:05:56.406Z,10.40
2023-05-03T23:08:23.571Z,10.40
2023-05-03T23:10:51.084Z,10.40
2023-05-03T23:13:18.296Z,10.40
2023-05-03T23:15:45.539Z,10.40
2023-05-03T23:18:12.652Z,10.40
2023-05-03T23:20:39.825Z,10.40
2023-05-03T23:23:06.920Z,10.40
2023-05-03T23:25:34.233Z,10.40
2023-05-03T23:28:01.384Z,10.40
2023-05-03T23:30:28.863Z,10.40
2023-05-03T23:32:56.574Z,10.40
2023-05-03T23:35:24.151Z,10.40
2023-05-03T23:37:51.555Z,10.40
2023-05-03T23:40:18.702Z,10.50
2023-05-03T23:42:46.734Z,10.50
2023-05-03T23:45:13.864Z,10.50
2023-05-03T23:47:40.951Z,10.50
2023-05-03T23:50:08.799Z,10.50
2023-05-03T23:52:36.223Z,10.60
2023-05-03T23:55:05.060Z,10.60
2023-05-03T23:57:32.378Z,10.60
2023-05-03T23:59:59.549Z,10.60
